Time;durP1;ratioP1;P1;durP2;ratioP2;P2;SDS_P1;SDS_P2;PMS_P1;PMS_P2;Temp;Humidity;BMP_temperature;BMP_pressure;BME280_temperature;BME280_humidity;BME280_pressure;Samples;Min_cycle;Max_cycle;Signal;HPM_P1;HPM_P2
2022/04/27 00:00:44;;;;;;;15.40;11.63;;;8.80;99.90;;;;;;4996701;28;20456;-52
2022/04/27 00:03:11;;;;;;;14.90;12.70;;;8.80;99.90;;;;;;4997062;28;20451;-50
2022/04/27 00:05:38;;;;;;;15.40;11.67;;;8.80;99.90;;;;;;4996815;28;20547;-50
2022/04/27 00:08:06;;;;;;;15.23;11.90;;;8.90;99.90;;;;;;4996545;28;20471;-50
2022/04/27 00:10:33;;;;;;;13.70;12.13;;;8.90;99.90;;;;;;4996568;28;20820;-50
2022/04/27 00:13:01;;;;;;;15.73;13.03;;;9.00;99.90;;;;;;4997002;28;20448;-50
2022/04/27 00:15:29;;;;;;;13.30;11.90;;;9.00;99.90;;;;;;4996859;28;20502;-50
2022/04/27 00:17:56;;;;;;;16.07;12.50;;;9.00;99.90;;;;;;4996310;28;20497;-50
2022/04/27 00:20:23;;;;;;;21.47;13.83;;;8.90;99.90;;;;;;4997043;28;20455;-50
2022/04/27 00:22:50;;;;;;;14.23;12.27;;;8.80;99.90;;;;;;4996700;28;20827;-50
2022/04/27 00:25:17;;;;;;;15.60;13.93;;;8.80;99.90;;;;;;4996594;28;20826;-50
2022/04/27 00:27:46;;;;;;;16.30;14.60;;;8.80;99.90;;;;;;4996445;28;21013;-50
2022/04/27 00:30:14;;;;;;;19.97;14.17;;;8.80;99.90;;;;;;4996218;28;20455;-51
2022/04/27 00:32:41;;;;;;;19.07;15.87;;;8.80;99.90;;;;;;4996469;28;20456;-50
2022/04/27 00:35:09;;;;;;;16.93;14.17;;;8.80;99.90;;;;;;4996167;28;20487;-50
2022/04/27 00:37:37;;;;;;;20.80;14.70;;;8.80;99.90;;;;;;4996377;28;20546;-50
2022/04/27 00:40:04;;;;;;;17.40;15.07;;;8.90;99.90;;;;;;4996399;28;20452;-50
2022/04/27 00:42:31;;;;;;;19.03;16.93;;;8.70;99.90;;;;;;4996016;28;20815;-49
2022/04/27 00:44:58;;;;;;;17.83;14.90;;;8.70;99.90;;;;;;4996071;28;20955;-50
2022/04/27 00:47:30;;;;;;;19.43;15.40;;;8.80;99.90;;;;;;4996246;28;20440;-50
2022/04/27 00:49:58;;;;;;;17.57;14.50;;;8.80;99.90;;;;;;4995921;28;20775;-50
2022/04/27 00:52:26;;;;;;;21.10;15.00;;;8.80;99.90;;;;;;4995976;28;20456;-50
2022/04/27 00:54:55;;;;;;;19.27;17.27;;;8.80;99.90;;;;;;4996118;28;20447;-50
2022/04/27 00:57:24;;;;;;;20.23;16.37;;;8.80;99.90;;;;;;4995887;28;20653;-50
2022/04/27 00:59:52;;;;;;;18.77;15.17;;;8.80;99.90;;;;;;4995385;28;20481;-50
2022/04/27 01:02:19;;;;;;;19.47;16.33;;;8.70;99.90;;;;;;4995723;28;20495;-50
2022/04/27 01:04:49;;;;;;;20.27;15.50;;;8.70;99.90;;;;;;4995943;28;20542;-50
2022/04/27 01:07:16;;;;;;;17.80;14.70;;;8.70;99.90;;;;;;4995634;28;20432;-50
2022/04/27 01:09:44;;;;;;;23.70;15.53;;;8.50;99.90;;;;;;4995931;28;20448;-50
2022/04/27 01:12:11;;;;;;;19.77;15.57;;;8.60;99.90;;;;;;4995481;28;20448;-50
2022/04/27 01:14:42;;;;;;;17.20;15.10;;;8.70;99.90;;;;;;4995466;28;20433;-50
2022/04/27 01:17:09;;;;;;;19.97;16.23;;;8.70;99.90;;;;;;4995371;28;20436;-50
2022/04/27 01:19:36;;;;;;;17.93;15.43;;;8.70;99.90;;;;;;4995609;28;20476;-50
2022/04/27 01:22:06;;;;;;;20.33;17.80;;;8.70;99.90;;;;;;4995250;28;20451;-50
2022/04/27 01:24:33;;;;;;;19.90;15.07;;;8.70;99.90;;;;;;4995365;28;20447;-50
2022/04/27 01:27:00;;;;;;;21.20;16.30;;;8.70;99.90;;;;;;4995607;28;20872;-50
2022/04/27 01:29:27;;;;;;;20.70;17.00;;;8.80;99.90;;;;;;4995462;28;20832;-50
2022/04/27 01:31:56;;;;;;;22.77;16.97;;;8.80;99.90;;;;;;4995418;28;20467;-50
2022/04/27 01:34:24;;;;;;;21.57;18.47;;;8.90;99.90;;;;;;4995371;28;20881;-50
2022/04/27 01:36:51;;;;;;;21.20;17.20;;;8.90;99.90;;;;;;4994208;28;20512;-50
2022/04/27 01:39:22;;;;;;;23.47;17.50;;;8.90;99.90;;;;;;4995103;28;20499;-50
2022/04/27 01:41:49;;;;;;;23.23;17.53;;;9.00;99.90;;;;;;4995306;28;20436;-50
2022/04/27 01:44:17;;;;;;;21.13;17.00;;;9.10;99.90;;;;;;4995176;28;20455;-50
2022/04/27 01:46:44;;;;;;;25.60;19.00;;;9.10;99.90;;;;;;4994849;28;20447;-50
2022/04/27 01:49:11;;;;;;;20.70;16.87;;;9.10;99.90;;;;;;4994890;28;20452;-49
2022/04/27 01:54:24;;;;;;;25.07;18.10;;;9.10;99.90;;;;;;4994801;28;20408;-50
2022/04/27 01:56:52;;;;;;;24.80;19.37;;;9.10;99.90;;;;;;4995003;28;20455;-50
2022/04/27 01:59:19;;;;;;;27.10;18.03;;;9.20;99.90;;;;;;4994588;28;20983;-50
2022/04/27 02:01:46;;;;;;;24.47;18.80;;;9.20;99.90;;;;;;4994515;28;20462;-50
2022/04/27 02:04:13;;;;;;;27.87;20.07;;;9.10;99.90;;;;;;4994792;28;20531;-50
2022/04/27 02:06:42;;;;;;;28.17;20.83;;;9.00;99.90;;;;;;4994532;28;20451;-50
2022/04/27 02:09:09;;;;;;;30.23;22.87;;;9.00;99.90;;;;;;4994668;28;20472;-50
2022/04/27 02:11:38;;;;;;;28.50;21.30;;;9.00;99.90;;;;;;4993508;28;20452;-50
2022/04/27 02:14:06;;;;;;;27.47;19.27;;;9.10;99.90;;;;;;4994628;28;20965;-50
2022/04/27 02:16:33;;;;;;;31.43;22.07;;;9.10;99.90;;;;;;4994727;28;20484;-50
2022/04/27 02:19:00;;;;;;;26.60;20.80;;;9.20;99.90;;;;;;4994432;28;20488;-50
2022/04/27 02:21:27;;;;;;;26.50;20.90;;;9.30;99.90;;;;;;4994545;28;20454;-50
2022/04/27 02:23:56;;;;;;;33.80;20.53;;;9.20;99.90;;;;;;4994303;28;20550;-50
2022/04/27 02:26:23;;;;;;;30.13;21.00;;;9.10;99.90;;;;;;4994525;28;20959;-50
2022/04/27 02:28:52;;;;;;;31.97;22.33;;;9.00;99.90;;;;;;4994040;28;20551;-50
2022/04/27 02:31:19;;;;;;;29.90;20.60;;;9.10;99.90;;;;;;4994183;28;20460;-50
2022/04/27 02:33:46;;;;;;;27.60;19.90;;;9.10;99.90;;;;;;4994062;28;20935;-50
2022/04/27 02:36:13;;;;;;;28.30;20.33;;;9.10;99.90;;;;;;4993833;28;20519;-50
2022/04/27 02:38:40;;;;;;;28.30;21.67;;;9.10;99.90;;;;;;4994237;28;20492;-50
2022/04/27 02:41:08;;;;;;;27.13;20.97;;;9.00;99.90;;;;;;4993951;28;20454;-50
2022/04/27 02:43:35;;;;;;;27.03;19.50;;;9.00;99.90;;;;;;4994244;28;20452;-49
2022/04/27 02:46:04;;;;;;;28.97;21.63;;;9.10;99.90;;;;;;4993983;28;21011;-50
2022/04/27 02:48:31;;;;;;;31.37;23.20;;;9.00;99.90;;;;;;4993866;28;20464;-50
2022/04/27 02:53:42;;;;;;;28.33;21.07;;;9.10;99.90;;;;;;4993941;28;20467;-50
2022/04/27 02:56:10;;;;;;;24.70;19.50;;;9.10;99.90;;;;;;4994225;28;20463;-50
2022/04/27 02:58:37;;;;;;;29.00;20.33;;;9.00;99.90;;;;;;4993972;28;20488;-50
2022/04/27 03:01:06;;;;;;;27.23;20.00;;;9.10;99.90;;;;;;4993684;28;20937;-50
2022/04/27 03:03:33;;;;;;;25.37;19.80;;;9.10;99.90;;;;;;4994189;28;20543;-50
2022/04/27 03:06:00;;;;;;;24.67;17.30;;;9.10;99.90;;;;;;4993678;28;20454;-50
2022/04/27 03:08:27;;;;;;;22.30;17.37;;;9.20;99.90;;;;;;4993941;28;20467;-50
2022/04/27 03:10:54;;;;;;;22.90;17.50;;;9.20;99.90;;;;;;4993770;28;20484;-50
2022/04/27 03:13:21;;;;;;;26.20;20.23;;;9.10;99.90;;;;;;4993679;28;20943;-50
2022/04/27 03:15:48;;;;;;;21.43;15.90;;;9.10;99.90;;;;;;4993705;28;20459;-50
2022/04/27 03:18:20;;;;;;;23.23;18.30;;;9.20;99.90;;;;;;4993569;28;20491;-50
2022/04/27 03:20:49;;;;;;;17.90;15.30;;;9.30;99.90;;;;;;4994000;28;20443;-50
2022/04/27 03:23:16;;;;;;;19.50;16.13;;;9.40;99.90;;;;;;4995755;28;20456;-50
2022/04/27 03:25:44;;;;;;;20.37;15.40;;;9.50;99.90;;;;;;4997533;28;20463;-50
2022/04/27 03:28:12;;;;;;;20.97;16.23;;;9.50;99.90;;;;;;4997412;28;20499;-50
2022/04/27 03:30:39;;;;;;;23.30;16.37;;;9.40;99.90;;;;;;4997260;28;20460;-50
2022/04/27 03:33:06;;;;;;;20.13;15.13;;;9.50;99.90;;;;;;4997604;28;20448;-51
2022/04/27 03:35:36;;;;;;;20.20;15.57;;;9.50;99.90;;;;;;4997378;28;20467;-51
2022/04/27 03:38:03;;;;;;;22.70;17.00;;;9.60;99.90;;;;;;4997105;28;20974;-51
2022/04/27 03:40:30;;;;;;;17.37;15.47;;;9.60;99.90;;;;;;4997476;28;20470;-51
2022/04/27 03:42:57;;;;;;;21.27;17.13;;;9.60;99.90;;;;;;4997549;28;20459;-51
2022/04/27 03:45:25;;;;;;;21.63;17.83;;;9.60;99.90;;;;;;4997113;28;20487;-51
2022/04/27 03:47:52;;;;;;;19.70;16.30;;;9.60;99.90;;;;;;4997008;28;20955;-51
2022/04/27 03:50:20;;;;;;;20.70;15.83;;;9.50;99.90;;;;;;4997369;28;20443;-51
2022/04/27 03:52:48;;;;;;;22.77;17.53;;;9.40;99.90;;;;;;4997015;28;20455;-51
2022/04/27 03:55:15;;;;;;;20.17;15.20;;;9.30;99.90;;;;;;4997176;28;20448;-51
2022/04/27 03:57:42;;;;;;;22.40;15.43;;;9.20;99.90;;;;;;4997200;28;20459;-51
2022/04/27 04:00:11;;;;;;;17.40;15.23;;;9.30;99.90;;;;;;4997077;28;20487;-51
2022/04/27 04:02:38;;;;;;;20.57;15.67;;;9.30;99.90;;;;;;4997167;28;20487;-51
2022/04/27 04:05:06;;;;;;;19.33;16.13;;;9.40;99.90;;;;;;4997052;28;20484;-51
2022/04/27 04:07:34;;;;;;;18.33;14.90;;;9.30;99.90;;;;;;4996992;28;20478;-51
2022/04/27 04:10:03;;;;;;;18.07;15.20;;;9.40;99.90;;;;;;4996935;28;20809;-51
2022/04/27 04:12:30;;;;;;;21.40;16.60;;;9.60;99.90;;;;;;4996854;28;20526;-51
2022/04/27 04:14:57;;;;;;;21.13;15.47;;;9.70;99.90;;;;;;4996632;28;20448;-51
2022/04/27 04:17:24;;;;;;;21.20;15.00;;;9.60;99.90;;;;;;4996427;28;20811;-51
2022/04/27 04:19:51;;;;;;;21.17;15.80;;;9.50;99.90;;;;;;4996548;28;20484;-51
2022/04/27 04:22:18;;;;;;;17.20;14.70;;;9.60;99.90;;;;;;4996816;28;20484;-51
2022/04/27 04:30:13;;;;;;;20.50;14.27;;;9.60;99.90;;;;;;4996408;28;20486;-51
2022/04/27 04:32:40;;;;;;;19.57;15.07;;;9.70;99.90;;;;;;4996142;28;20872;-51
2022/04/27 04:35:08;;;;;;;18.47;14.47;;;9.60;99.90;;;;;;4995010;28;20901;-51
2022/04/27 04:37:36;;;;;;;17.93;15.97;;;9.50;99.90;;;;;;4996108;28;20528;-51
2022/04/27 04:40:03;;;;;;;20.40;15.13;;;9.60;99.90;;;;;;4996278;28;20487;-51
2022/04/27 04:42:33;;;;;;;17.70;15.20;;;9.50;99.90;;;;;;4996105;28;20966;-51
2022/04/27 04:45:00;;;;;;;24.10;16.90;;;9.60;99.90;;;;;;4996564;28;20452;-51
2022/04/27 04:47:28;;;;;;;20.57;16.37;;;9.60;99.90;;;;;;4995824;28;20467;-51
2022/04/27 04:49:55;;;;;;;19.63;14.80;;;9.70;99.90;;;;;;4995943;28;20448;-51
2022/04/27 04:52:22;;;;;;;22.00;16.13;;;9.70;99.90;;;;;;4996092;28;20791;-50
2022/04/27 04:54:49;;;;;;;19.57;16.10;;;9.70;99.90;;;;;;4996025;28;20452;-51
2022/04/27 04:57:16;;;;;;;21.30;16.47;;;9.80;99.90;;;;;;4996298;28;20459;-51
2022/04/27 04:59:45;;;;;;;23.63;16.30;;;9.80;99.90;;;;;;4995643;28;20486;-51
2022/04/27 05:02:12;;;;;;;19.63;15.70;;;9.80;99.90;;;;;;4995866;28;20594;-51
2022/04/27 05:04:39;;;;;;;19.80;14.70;;;9.80;99.90;;;;;;4995864;28;20890;-51
2022/04/27 05:07:06;;;;;;;20.53;16.50;;;9.80;99.90;;;;;;4995620;28;20935;-51
2022/04/27 05:09:33;;;;;;;22.40;18.00;;;9.80;99.90;;;;;;4995690;28;20526;-51
2022/04/27 05:12:00;;;;;;;26.07;17.53;;;9.90;99.90;;;;;;4995455;28;20535;-52
2022/04/27 05:14:28;;;;;;;21.20;17.57;;;9.90;99.90;;;;;;4995773;28;20452;-52
2022/04/27 05:16:56;;;;;;;22.40;16.30;;;9.90;99.90;;;;;;4995460;28;20458;-52
2022/04/27 05:19:23;;;;;;;22.53;17.50;;;9.80;99.90;;;;;;4995215;28;20488;-52
2022/04/27 05:21:51;;;;;;;20.50;16.53;;;9.70;99.90;;;;;;4995712;28;20452;-51
2022/04/27 05:24:18;;;;;;;23.47;18.33;;;9.80;99.90;;;;;;4995899;28;20452;-53
2022/04/27 05:26:50;;;;;;;22.70;15.53;;;9.80;99.90;;;;;;4995560;28;20562;-53
2022/04/27 05:32:04;;;;;;;17.77;14.93;;;9.60;99.90;;;;;;4995253;28;20407;-52
2022/04/27 05:34:33;;;;;;;18.67;16.30;;;9.70;99.90;;;;;;4994804;28;20864;-52
2022/04/27 05:37:01;;;;;;;20.97;15.07;;;9.70;99.90;;;;;;4994990;28;20460;-52
2022/04/27 05:39:28;;;;;;;21.60;16.90;;;9.80;99.90;;;;;;4994721;28;20578;-52
2022/04/27 05:41:56;;;;;;;22.30;15.90;;;9.90;99.90;;;;;;4995200;28;20456;-50
2022/04/27 05:44:25;;;;;;;20.70;16.77;;;9.80;99.90;;;;;;4994974;28;20459;-50
2022/04/27 05:46:54;;;;;;;20.27;16.10;;;9.90;99.90;;;;;;4994754;28;20813;-50
2022/04/27 05:49:23;;;;;;;24.73;16.30;;;9.90;99.90;;;;;;4994858;28;20562;-50
2022/04/27 05:51:50;;;;;;;19.50;16.17;;;9.90;99.90;;;;;;4994500;28;20559;-50
2022/04/27 05:54:18;;;;;;;21.43;17.40;;;9.90;99.90;;;;;;4994427;28;20450;-50
2022/04/27 05:56:46;;;;;;;20.33;15.80;;;9.90;99.90;;;;;;4994878;28;20487;-50
2022/04/27 05:59:13;;;;;;;18.80;16.03;;;9.90;99.90;;;;;;4994616;28;21022;-50
2022/04/27 06:01:41;;;;;;;22.63;16.70;;;10.00;99.90;;;;;;4994427;28;20463;-51
2022/04/27 06:04:09;;;;;;;22.63;16.57;;;10.00;99.90;;;;;;4994540;28;20463;-51
2022/04/27 06:06:37;;;;;;;18.63;14.73;;;10.10;99.90;;;;;;4994380;28;20455;-53
2022/04/27 06:09:05;;;;;;;17.93;14.57;;;10.20;99.90;;;;;;4994301;28;20551;-50
2022/04/27 06:11:32;;;;;;;18.10;14.57;;;10.10;99.90;;;;;;4994368;28;20538;-50
2022/04/27 06:13:59;;;;;;;17.77;14.37;;;10.20;99.90;;;;;;4994690;28;20458;-50
2022/04/27 06:16:27;;;;;;;19.33;15.80;;;10.30;99.90;;;;;;4994232;28;20459;-52
2022/04/27 06:18:54;;;;;;;17.80;14.30;;;10.30;99.90;;;;;;4994367;28;20523;-51
2022/04/27 06:21:22;;;;;;;18.30;15.40;;;10.30;99.90;;;;;;4994561;28;20555;-51
2022/04/27 06:23:50;;;;;;;18.67;15.93;;;10.30;99.90;;;;;;4994063;28;20459;-51
2022/04/27 06:26:18;;;;;;;16.67;14.10;;;10.30;99.90;;;;;;4994474;28;20817;-51
2022/04/27 06:28:45;;;;;;;17.33;14.80;;;10.40;99.90;;;;;;4994344;28;20534;-51
2022/04/27 06:31:13;;;;;;;21.77;15.47;;;10.20;99.90;;;;;;4994204;28;20518;-51
2022/04/27 06:33:40;;;;;;;19.67;14.97;;;10.30;99.90;;;;;;4994304;28;20448;-51
2022/04/27 06:36:07;;;;;;;18.03;14.70;;;10.30;99.90;;;;;;4993885;28;20490;-51
2022/04/27 06:38:34;;;;;;;16.03;14.00;;;10.30;99.90;;;;;;4994099;28;20482;-50
2022/04/27 06:41:05;;;;;;;19.63;15.10;;;10.30;99.90;;;;;;4993764;28;20986;-50
2022/04/27 06:43:32;;;;;;;18.90;15.47;;;10.20;99.90;;;;;;4993872;28;20495;-51
2022/04/27 06:46:00;;;;;;;17.43;14.60;;;10.30;99.90;;;;;;4993763;28;20848;-51
2022/04/27 06:48:27;;;;;;;19.60;15.03;;;10.30;99.90;;;;;;4993726;28;20452;-51
2022/04/27 06:50:54;;;;;;;16.37;14.67;;;10.20;99.90;;;;;;4994089;28;20487;-51
2022/04/27 06:53:21;;;;;;;18.37;15.80;;;10.30;99.90;;;;;;4993579;28;20799;-51
2022/04/27 06:55:50;;;;;;;18.00;14.93;;;10.40;99.90;;;;;;4993749;28;20464;-51
2022/04/27 06:58:18;;;;;;;17.60;14.83;;;10.60;99.90;;;;;;4998635;28;20467;-51
2022/04/27 07:00:46;;;;;;;16.97;14.43;;;10.70;99.90;;;;;;5000421;28;20538;-51
2022/04/27 07:03:13;;;;;;;17.43;14.70;;;10.70;99.90;;;;;;5000299;28;20487;-51
2022/04/27 07:05:40;;;;;;;15.43;13.17;;;10.60;99.90;;;;;;5000417;28;20453;-51
2022/04/27 07:08:08;;;;;;;18.50;15.23;;;10.30;99.90;;;;;;5000174;28;20478;-51
2022/04/27 07:10:37;;;;;;;18.23;14.50;;;10.60;99.90;;;;;;5000459;28;20601;-51
2022/04/27 07:13:05;;;;;;;14.27;12.30;;;10.70;99.90;;;;;;5000009;28;20962;-51
2022/04/27 07:15:34;;;;;;;16.70;13.83;;;10.70;99.90;;;;;;5000169;28;20452;-51
2022/04/27 07:18:01;;;;;;;15.27;13.40;;;10.80;99.90;;;;;;5000011;28;20478;-51
2022/04/27 07:20:28;;;;;;;14.50;11.57;;;10.80;99.90;;;;;;5000127;28;20843;-51
2022/04/27 07:22:56;;;;;;;14.53;13.03;;;10.80;99.90;;;;;;5000300;28;20805;-50
2022/04/27 07:25:23;;;;;;;15.17;12.57;;;10.90;99.90;;;;;;5000053;28;20934;-51
2022/04/27 07:27:50;;;;;;;14.97;12.80;;;10.90;99.90;;;;;;4999839;28;20475;-51
2022/04/27 07:30:17;;;;;;;13.80;12.30;;;11.00;99.90;;;;;;5000004;28;20448;-51
2022/04/27 07:32:47;;;;;;;14.07;12.40;;;11.00;99.90;;;;;;4999965;28;20458;-51
2022/04/27 07:35:14;;;;;;;12.80;11.40;;;11.30;99.90;;;;;;4999863;28;20479;-51
2022/04/27 07:37:42;;;;;;;13.13;11.60;;;11.40;99.90;;;;;;4999908;28;21001;-52
2022/04/27 07:40:10;;;;;;;11.70;10.50;;;11.60;99.90;;;;;;4999902;28;20578;-51
2022/04/27 07:42:38;;;;;;;13.57;11.60;;;11.40;99.90;;;;;;5000136;28;20451;-51
2022/04/27 07:45:07;;;;;;;12.00;10.80;;;11.30;99.90;;;;;;5000047;28;20456;-51
2022/04/27 07:47:41;;;;;;;15.00;10.87;;;11.50;99.90;;;;;;5000295;28;20448;-52
2022/04/27 07:50:11;;;;;;;12.03;10.37;;;11.60;99.90;;;;;;4999829;28;20921;-51
2022/04/27 07:52:39;;;;;;;13.53;10.23;;;11.50;99.90;;;;;;4999722;28;20431;-51
2022/04/27 07:55:07;;;;;;;12.00;10.20;;;11.70;99.90;;;;;;4999738;28;20519;-52
2022/04/27 07:57:35;;;;;;;13.63;10.10;;;11.90;99.90;;;;;;4999692;28;20802;-50
2022/04/27 08:00:07;;;;;;;14.17;10.40;;;12.10;99.90;;;;;;4999992;28;20559;-51
2022/04/27 08:02:35;;;;;;;12.30;10.57;;;12.00;99.90;;;;;;4999961;28;20432;-51
2022/04/27 08:05:03;;;;;;;9.77;8.77;;;11.80;99.90;;;;;;4999718;28;20487;-51
2022/04/27 08:07:37;;;;;;;11.57;9.70;;;11.60;99.90;;;;;;4999842;28;20489;-51
2022/04/27 08:10:12;;;;;;;11.10;8.20;;;11.50;99.90;;;;;;4996810;28;20424;-50
2022/04/27 08:12:42;;;;;;;13.10;10.77;;;11.70;99.90;;;;;;4996401;28;20451;-50
2022/04/27 08:15:10;;;;;;;10.70;8.83;;;11.90;99.90;;;;;;4996709;28;20535;-50
2022/04/27 08:17:51;;;;;;;9.50;8.50;;;12.40;99.90;;;;;;4996519;28;20512;-51
2022/04/27 08:23:09;;;;;;;10.40;8.70;;;12.60;99.90;;;;;;4996404;28;20415;-50
2022/04/27 08:25:36;;;;;;;9.70;8.70;;;12.60;99.90;;;;;;4996571;28;20518;-53
2022/04/27 08:28:06;;;;;;;11.20;9.23;;;12.50;99.90;;;;;;4996640;28;20526;-52
2022/04/27 08:30:34;;;;;;;10.97;9.77;;;12.80;99.90;;;;;;4996193;28;20487;-51
2022/04/27 08:33:01;;;;;;;9.77;8.80;;;14.00;99.90;;;;;;4996151;28;21001;-50
2022/04/27 08:35:29;;;;;;;10.67;9.50;;;14.10;99.90;;;;;;4995842;28;20902;-51
2022/04/27 08:38:00;;;;;;;9.13;7.90;;;14.60;99.90;;;;;;4996383;28;20828;-53
2022/04/27 08:40:29;;;;;;;10.70;9.60;;;15.30;99.90;;;;;;4996009;28;20510;-51
2022/04/27 08:42:57;;;;;;;11.90;9.13;;;15.90;99.90;;;;;;4995957;28;20451;-51
2022/04/27 08:45:26;;;;;;;9.53;8.53;;;15.40;99.90;;;;;;4996387;28;20480;-51
2022/04/27 08:47:53;;;;;;;11.53;9.20;;;15.00;99.90;;;;;;4996028;28;20478;-51
2022/04/27 08:50:22;;;;;;;9.60;8.63;;;14.40;99.90;;;;;;4996093;28;20447;-51
2022/04/27 08:52:50;;;;;;;12.33;9.70;;;14.30;99.90;;;;;;4995851;28;20458;-51
2022/04/27 08:55:19;;;;;;;10.60;9.60;;;14.30;99.90;;;;;;4995785;28;20460;-51
2022/04/27 08:57:49;;;;;;;11.73;8.23;;;14.40;99.90;;;;;;4995602;28;20551;-52
2022/04/27 09:00:17;;;;;;;9.50;8.50;;;14.60;99.90;;;;;;4995431;28;20547;-53
2022/04/27 09:02:45;;;;;;;10.43;9.43;;;14.40;99.90;;;;;;4995670;28;20538;-50
2022/04/27 09:05:14;;;;;;;9.90;8.77;;;14.30;99.90;;;;;;4995745;28;20458;-51
2022/04/27 09:07:42;;;;;;;8.97;7.47;;;13.90;99.90;;;;;;4995789;28;20468;-51
2022/04/27 09:10:12;;;;;;;11.70;8.93;;;13.50;99.90;;;;;;4995684;28;20760;-51
2022/04/27 09:12:48;;;;;;;10.50;8.53;;;13.20;99.90;;;;;;4995563;28;20550;-51
2022/04/27 09:15:16;;;;;;;11.57;9.97;;;13.20;99.90;;;;;;4995238;28;20432;-51
2022/04/27 09:23:23;;;;;;;12.30;10.03;;;12.90;99.90;;;;;;4987836;28;20568;-51
2022/04/27 09:25:51;;;;;;;11.63;10.23;;;12.80;99.90;;;;;;4995174;28;20919;-51
2022/04/27 09:28:23;;;;;;;12.23;9.67;;;12.90;99.90;;;;;;4995015;28;20478;-51
2022/04/27 09:30:51;;;;;;;12.83;10.20;;;12.80;99.90;;;;;;4995013;28;20844;-51
2022/04/27 09:33:38;;;;;;;11.23;10.07;;;12.80;99.90;;;;;;4995130;28;20506;-51
2022/04/27 09:36:22;;;;;;;11.50;8.80;;;13.00;99.90;;;;;;4995005;28;20870;-51
2022/04/27 09:38:49;;;;;;;9.93;8.00;;;12.90;99.90;;;;;;4995000;28;20490;-51
2022/04/27 09:41:16;;;;;;;7.50;6.33;;;12.90;99.90;;;;;;4994749;28;20955;-51
2022/04/27 09:43:49;;;;;;;8.40;7.60;;;13.10;99.90;;;;;;4995022;28;20541;-51
2022/04/27 09:46:17;;;;;;;7.07;6.07;;;13.20;99.90;;;;;;4994699;28;20432;-51
2022/04/27 09:48:47;;;;;;;9.87;8.43;;;13.40;99.90;;;;;;4994610;28;20472;-51
2022/04/27 09:51:15;;;;;;;8.50;7.60;;;13.60;99.90;;;;;;4994960;28;20784;-51
2022/04/27 09:53:43;;;;;;;8.33;7.53;;;13.60;99.90;;;;;;4994930;28;20456;-51
2022/04/27 09:56:14;;;;;;;7.73;6.93;;;13.50;99.90;;;;;;4995123;28;20474;-51
2022/04/27 09:58:47;;;;;;;7.00;6.30;;;13.30;99.90;;;;;;4994829;28;20478;-51
2022/04/27 10:01:17;;;;;;;11.50;7.50;;;13.30;99.90;;;;;;4994825;28;20467;-51
2022/04/27 10:03:48;;;;;;;9.40;7.27;;;13.40;99.90;;;;;;4994383;28;20534;-51
2022/04/27 10:06:15;;;;;;;8.13;6.40;;;13.50;99.90;;;;;;4994476;28;20424;-52
2022/04/27 10:08:43;;;;;;;7.03;5.60;;;13.80;99.90;;;;;;4994544;28;20480;-51
2022/04/27 10:11:12;;;;;;;8.20;6.50;;;14.10;99.90;;;;;;4994625;28;20452;-51
2022/04/27 10:13:39;;;;;;;7.23;6.50;;;14.50;99.90;;;;;;4994385;28;20459;-51
2022/04/27 10:16:07;;;;;;;8.53;6.97;;;14.40;99.90;;;;;;4994584;28;20540;-51
2022/04/27 10:18:36;;;;;;;7.70;6.00;;;14.50;99.90;;;;;;4994054;28;20475;-51
2022/04/27 10:21:05;;;;;;;8.33;6.40;;;14.60;99.90;;;;;;4994038;28;20483;-51
2022/04/27 10:23:32;;;;;;;6.47;5.80;;;14.50;99.90;;;;;;4994167;28;20460;-52
2022/04/27 10:26:14;;;;;;;8.60;6.10;;;14.70;99.90;;;;;;4994197;28;20452;-52
2022/04/27 10:28:49;;;;;;;4.90;4.40;;;14.60;99.90;;;;;;4994248;28;20476;-52
2022/04/27 10:31:49;;;;;;;6.10;5.50;;;14.60;99.90;;;;;;4993903;28;20432;-52
2022/04/27 10:34:21;;;;;;;5.37;4.67;;;14.80;99.90;;;;;;4989450;28;20487;-51
2022/04/27 10:36:49;;;;;;;4.43;4.03;;;14.70;99.90;;;;;;4993831;28;20563;-52
2022/04/27 10:39:21;;;;;;;4.40;4.00;;;14.70;99.90;;;;;;4993958;28;20832;-52
2022/04/27 10:42:11;;;;;;;5.43;4.60;;;14.80;99.90;;;;;;4993910;28;20472;-53
2022/04/27 10:45:08;;;;;;;6.37;4.73;;;14.90;99.90;;;;;;4981479;28;20518;-51
2022/04/27 10:47:37;;;;;;;4.60;4.20;;;14.90;99.90;;;;;;4993743;28;20429;-52
2022/04/27 10:50:29;;;;;;;4.73;4.23;;;14.90;99.90;;;;;;4994086;28;20454;-51
2022/04/27 10:52:57;;;;;;;5.17;4.40;;;14.50;99.90;;;;;;4994248;28;20771;-51
2022/04/27 10:55:45;;;;;;;5.20;4.70;;;14.50;99.90;;;;;;4993697;28;20484;-53
2022/04/27 10:58:17;;;;;;;5.53;4.97;;;14.70;99.90;;;;;;4993936;28;20523;-52
2022/04/27 11:01:18;;;;;;;5.13;4.63;;;14.50;99.90;;;;;;4993494;28;20468;-51
2022/04/27 11:03:55;;;;;;;7.10;5.20;;;14.10;99.90;;;;;;4993833;28;20799;-52
2022/04/27 11:06:24;;;;;;;5.60;5.00;;;14.20;99.90;;;;;;4994042;28;20518;-51
2022/04/27 11:09:05;;;;;;;5.00;4.50;;;14.10;99.90;;;;;;4993544;28;20504;-51
2022/04/27 11:11:33;;;;;;;4.23;3.83;;;14.10;99.90;;;;;;4993353;28;20439;-51
2022/04/27 11:14:01;;;;;;;5.03;4.43;;;14.40;99.90;;;;;;4993746;28;20922;-51
2022/04/27 11:16:28;;;;;;;5.13;4.63;;;14.40;99.90;;;;;;4993905;28;20455;-51
2022/04/27 11:18:58;;;;;;;4.77;4.37;;;14.50;99.90;;;;;;4993588;28;20479;-51
2022/04/27 11:21:30;;;;;;;5.20;4.80;;;14.50;99.90;;;;;;4993378;28;20571;-52
2022/04/27 11:23:58;;;;;;;5.60;5.10;;;14.80;99.90;;;;;;4993445;28;20428;-51
2022/04/27 11:26:25;;;;;;;6.87;4.93;;;14.70;99.90;;;;;;4993644;28;20468;-52
2022/04/27 11:28:54;;;;;;;5.73;5.13;;;;;;;;;;4993717;28;20478;-52
2022/04/27 11:31:21;;;;;;;4.90;4.50;;;16.80;99.90;;;;;;4993586;28;20939;-52
2022/04/27 11:33:49;;;;;;;6.33;5.73;;;17.30;99.90;;;;;;4993583;28;20479;-52
2022/04/27 11:36:23;;;;;;;6.33;5.30;;;16.80;99.90;;;;;;4993212;28;20487;-54
2022/04/27 11:38:52;;;;;;;5.90;5.40;;;17.60;99.90;;;;;;4993507;28;20554;-51
2022/04/27 11:41:23;;;;;;;6.50;5.90;;;17.00;99.90;;;;;;4993462;28;20467;-51
2022/04/27 11:43:54;;;;;;;6.47;5.30;;;16.60;99.90;;;;;;4995188;28;20435;-51
2022/04/27 11:46:21;;;;;;;6.10;5.60;;;16.30;99.90;;;;;;4997259;28;20458;-51
2022/04/27 11:48:48;;;;;;;5.70;5.23;;;16.30;99.90;;;;;;4996946;28;20971;-51
2022/04/27 11:51:16;;;;;;;5.80;5.20;;;16.30;99.90;;;;;;4997292;28;20538;-53
2022/04/27 11:53:47;;;;;;;6.03;5.47;;;16.70;99.90;;;;;;4996990;28;20455;-51
2022/04/27 11:56:16;;;;;;;5.63;5.13;;;16.80;99.90;;;;;;4997311;28;20891;-52
2022/04/27 11:58:45;;;;;;;5.80;5.30;;;17.00;99.90;;;;;;4996739;28;21005;-52
2022/04/27 12:01:20;;;;;;;6.27;5.70;;;17.10;99.90;;;;;;4996742;28;20526;-52
2022/04/27 12:03:49;;;;;;;5.50;5.00;;;16.90;99.90;;;;;;4996942;28;20442;-52
2022/04/27 12:06:19;;;;;;;4.50;4.10;;;17.00;99.90;;;;;;4997009;28;20455;-53
2022/04/27 12:08:46;;;;;;;6.40;4.67;;;17.00;99.90;;;;;;4996621;28;20480;-52
2022/04/27 12:11:23;;;;;;;5.00;4.60;;;16.40;99.80;;;;;;4996579;28;20650;-52
2022/04/27 12:13:54;;;;;;;7.23;5.03;;;16.10;99.90;;;;;;4996670;28;20432;-51
2022/04/27 12:16:21;;;;;;;5.63;5.10;;;16.60;99.90;;;;;;4996645;28;20436;-51
2022/04/27 12:18:52;;;;;;;5.53;5.00;;;16.30;99.90;;;;;;4996755;28;20476;-51
2022/04/27 12:21:21;;;;;;;6.30;5.70;;;16.10;99.90;;;;;;4996685;28;20483;-51
2022/04/27 12:23:49;;;;;;;5.40;4.97;;;15.70;99.90;;;;;;4996263;28;20462;-52
2022/04/27 12:26:16;;;;;;;5.23;4.83;;;15.70;99.90;;;;;;4996790;28;20494;-52
2022/04/27 12:28:46;;;;;;;5.00;4.60;;;15.60;99.90;;;;;;4996163;28;20551;-52
2022/04/27 12:31:16;;;;;;;5.40;4.90;;;15.40;99.90;;;;;;4996500;28;20451;-52
2022/04/27 12:33:45;;;;;;;5.90;5.33;;;15.10;99.90;;;;;;4996432;28;20494;-52
2022/04/27 12:38:59;;;;;;;5.50;5.00;;;15.70;99.90;;;;;;4996232;28;20451;-52
2022/04/27 12:41:34;;;;;;;5.90;5.30;;;15.60;99.90;;;;;;4996116;28;20484;-52
2022/04/27 12:44:08;;;;;;;6.60;4.80;;;15.60;99.90;;;;;;4995962;28;20435;-52
2022/04/27 12:46:56;;;;;;;5.33;4.50;;;15.90;99.90;;;;;;4995798;28;20862;-52
2022/04/27 12:49:26;;;;;;;5.37;4.97;;;15.70;99.90;;;;;;4996405;28;20499;-51
2022/04/27 12:51:53;;;;;;;6.20;5.20;;;15.70;99.90;;;;;;4995986;28;20428;-52
2022/04/27 12:54:21;;;;;;;5.17;4.70;;;15.70;99.90;;;;;;4995743;28;20954;-51
2022/04/27 12:56:48;;;;;;;5.07;4.57;;;15.50;99.90;;;;;;4995454;28;20462;-51
2022/04/27 12:59:16;;;;;;;5.40;4.90;;;15.30;99.90;;;;;;4996028;28;20476;-51
2022/04/27 13:01:44;;;;;;;5.20;4.80;;;14.90;99.90;;;;;;4995546;28;20856;-52
2022/04/27 13:04:14;;;;;;;5.33;4.83;;;14.80;99.90;;;;;;4995764;28;20479;-52
2022/04/27 13:06:41;;;;;;;7.70;4.83;;;14.80;99.90;;;;;;4995945;28;20480;-52
2022/04/27 13:11:59;;;;;;;5.80;5.07;;;14.70;99.90;;;;;;4995646;28;20849;-51
2022/04/27 13:14:28;;;;;;;5.00;4.50;;;14.60;99.90;;;;;;4995784;28;20447;-52